sensor_id;sensor_type;location;lat;lon;timestamp;P1;durP1;ratioP1;P2;durP2;ratioP2
81656;SDS011;71067;51.482;-0.580;2023-11-21T00:01:53;4.82;;;2.80;;
81656;SDS011;71067;51.482;-0.580;2023-11-21T00:04:19;3.95;;;2.75;;
81656;SDS011;71067;51.482;-0.580;2023-11-21T00:06:45;6.28;;;3.28;;
81656;SDS011;71067;51.482;-0.580;2023-11-21T00:09:12;5.75;;;3.50;;
81656;SDS011;71067;51.482;-0.580;2023-11-21T00:11:40;7.85;;;3.30;;
81656;SDS011;71067;51.482;-0.580;2023-11-21T00:14:09;6.93;;;3.67;;
81656;SDS011;71067;51.482;-0.580;2023-11-21T00:16:35;7.10;;;3.63;;
81656;SDS011;71067;51.482;-0.580;2023-11-21T00:19:01;5.82;;;3.70;;
81656;SDS011;71067;51.482;-0.580;2023-11-21T00:21:27;7.57;;;3.72;;
81656;SDS011;71067;51.482;-0.580;2023-11-21T00:23:52;5.78;;;3.80;;
81656;SDS011;71067;51.482;-0.580;2023-11-21T00:26:18;6.30;;;4.05;;
81656;SDS011;71067;51.482;-0.580;2023-11-21T00:28:43;5.95;;;3.85;;
81656;SDS011;71067;51.482;-0.580;2023-11-21T00:31:09;6.50;;;4.03;;
81656;SDS011;71067;51.482;-0.580;2023-11-21T00:33:34;7.60;;;3.80;;
81656;SDS011;71067;51.482;-0.580;2023-11-21T00:35:59;6.57;;;3.80;;
81656;SDS011;71067;51.482;-0.580;2023-11-21T00:38:25;6.68;;;3.92;;
81656;SDS011;71067;51.482;-0.580;2023-11-21T00:40:52;6.32;;;4.00;;
81656;SDS011;71067;51.482;-0.580;2023-11-21T00:43:20;6.50;;;4.65;;
81656;SDS011;71067;51.482;-0.580;2023-11-21T00:45:46;6.95;;;4.20;;
81656;SDS011;71067;51.482;-0.580;2023-11-21T00:48:14;8.05;;;4.40;;
81656;SDS011;71067;51.482;-0.580;2023-11-21T00:50:40;8.68;;;4.75;;
81656;SDS011;71067;51.482;-0.580;2023-11-21T00:53:05;9.00;;;4.78;;
81656;SDS011;71067;51.482;-0.580;2023-11-21T00:55:32;6.10;;;4.25;;
81656;SDS011;71067;51.482;-0.580;2023-11-21T00:57:58;7.88;;;5.00;;
81656;SDS011;71067;51.482;-0.580;2023-11-21T01:00:23;7.18;;;4.78;;
81656;SDS011;71067;51.482;-0.580;2023-11-21T01:02:49;8.00;;;4.85;;
81656;SDS011;71067;51.482;-0.580;2023-11-21T01:05:14;6.68;;;4.97;;
81656;SDS011;71067;51.482;-0.580;2023-11-21T01:07:39;7.50;;;4.80;;
81656;SDS011;71067;51.482;-0.580;2023-11-21T01:10:05;6.40;;;5.13;;
81656;SDS011;71067;51.482;-0.580;2023-11-21T01:12:32;6.80;;;4.60;;
81656;SDS011;71067;51.482;-0.580;2023-11-21T01:15:03;6.20;;;4.68;;
81656;SDS011;71067;51.482;-0.580;2023-11-21T01:17:29;7.82;;;4.82;;
81656;SDS011;71067;51.482;-0.580;2023-11-21T01:19:54;7.15;;;5.15;;
81656;SDS011;71067;51.482;-0.580;2023-11-21T01:22:21;6.90;;;4.88;;
81656;SDS011;71067;51.482;-0.580;2023-11-21T01:24:50;9.70;;;5.75;;
81656;SDS011;71067;51.482;-0.580;2023-11-21T01:27:16;7.88;;;4.90;;
81656;SDS011;71067;51.482;-0.580;2023-11-21T01:29:42;7.68;;;4.80;;
81656;SDS011;71067;51.482;-0.580;2023-11-21T01:32:07;6.25;;;4.90;;
81656;SDS011;71067;51.482;-0.580;2023-11-21T01:34:33;7.85;;;5.20;;
81656;SDS011;71067;51.482;-0.580;2023-11-21T01:36:58;7.60;;;5.63;;
81656;SDS011;71067;51.482;-0.580;2023-11-21T01:39:24;9.27;;;6.00;;
81656;SDS011;71067;51.482;-0.580;2023-11-21T01:41:50;9.77;;;5.97;;
81656;SDS011;71067;51.482;-0.580;2023-11-21T01:44:17;9.90;;;5.88;;
81656;SDS011;71067;51.482;-0.580;2023-11-21T01:46:44;7.88;;;5.80;;
81656;SDS011;71067;51.482;-0.580;2023-11-21T01:49:10;7.65;;;5.78;;
81656;SDS011;71067;51.482;-0.580;2023-11-21T01:51:38;8.32;;;5.75;;
81656;SDS011;71067;51.482;-0.580;2023-11-21T01:54:08;7.30;;;4.57;;
81656;SDS011;71067;51.482;-0.580;2023-11-21T01:56:34;7.63;;;5.47;;
81656;SDS011;71067;51.482;-0.580;2023-11-21T01:59:00;7.38;;;4.70;;
81656;SDS011;71067;51.482;-0.580;2023-11-21T02:01:25;7.10;;;5.13;;
81656;SDS011;71067;51.482;-0.580;2023-11-21T02:03:51;6.80;;;4.78;;
81656;SDS011;71067;51.482;-0.580;2023-11-21T02:06:16;6.20;;;4.53;;
81656;SDS011;71067;51.482;-0.580;2023-11-21T02:08:42;8.73;;;4.53;;
81656;SDS011;71067;51.482;-0.580;2023-11-21T02:11:09;5.72;;;4.45;;
81656;SDS011;71067;51.482;-0.580;2023-11-21T02:13:35;9.07;;;5.00;;
81656;SDS011;71067;51.482;-0.580;2023-11-21T02:16:01;7.43;;;4.97;;
81656;SDS011;71067;51.482;-0.580;2023-11-21T02:18:26;7.93;;;4.95;;
81656;SDS011;71067;51.482;-0.580;2023-11-21T02:20:54;6.65;;;4.93;;
81656;SDS011;71067;51.482;-0.580;2023-11-21T02:23:20;7.75;;;5.00;;
81656;SDS011;71067;51.482;-0.580;2023-11-21T02:25:46;6.30;;;4.45;;
81656;SDS011;71067;51.482;-0.580;2023-11-21T02:28:12;6.57;;;4.78;;
81656;SDS011;71067;51.482;-0.580;2023-11-21T02:30:40;7.63;;;4.72;;
81656;SDS011;71067;51.482;-0.580;2023-11-21T02:33:05;7.28;;;4.72;;
81656;SDS011;71067;51.482;-0.580;2023-11-21T02:35:32;6.40;;;4.63;;
81656;SDS011;71067;51.482;-0.580;2023-11-21T02:37:57;6.15;;;4.68;;
81656;SDS011;71067;51.482;-0.580;2023-11-21T02:40:22;5.88;;;4.53;;
81656;SDS011;71067;51.482;-0.580;2023-11-21T02:42:50;5.93;;;4.32;;
81656;SDS011;71067;51.482;-0.580;2023-11-21T02:45:21;6.28;;;4.50;;
81656;SDS011;71067;51.482;-0.580;2023-11-21T02:47:46;4.05;;;3.38;;
81656;SDS011;71067;51.482;-0.580;2023-11-21T02:50:12;3.83;;;3.08;;
81656;SDS011;71067;51.482;-0.580;2023-11-21T02:52:38;4.10;;;3.00;;
81656;SDS011;71067;51.482;-0.580;2023-11-21T02:55:05;3.90;;;2.70;;
81656;SDS011;71067;51.482;-0.580;2023-11-21T02:57:32;3.60;;;2.22;;
81656;SDS011;71067;51.482;-0.580;2023-11-21T02:59:58;4.00;;;2.80;;
81656;SDS011;71067;51.482;-0.580;2023-11-21T03:02:24;3.17;;;2.60;;
81656;SDS011;71067;51.482;-0.580;2023-11-21T03:04:50;3.38;;;2.35;;
81656;SDS011;71067;51.482;-0.580;2023-11-21T03:07:16;3.03;;;2.30;;
81656;SDS011;71067;51.482;-0.580;2023-11-21T03:09:44;3.22;;;2.33;;
81656;SDS011;71067;51.482;-0.580;2023-11-21T03:12:10;4.05;;;2.80;;
81656;SDS011;71067;51.482;-0.580;2023-11-21T03:14:37;3.60;;;2.38;;
81656;SDS011;71067;51.482;-0.580;2023-11-21T03:17:03;3.72;;;2.58;;
81656;SDS011;71067;51.482;-0.580;2023-11-21T03:19:30;3.75;;;2.53;;
81656;SDS011;71067;51.482;-0.580;2023-11-21T03:21:55;4.15;;;2.50;;
81656;SDS011;71067;51.482;-0.580;2023-11-21T03:24:21;3.42;;;2.30;;
81656;SDS011;71067;51.482;-0.580;2023-11-21T03:26:47;2.47;;;1.85;;
81656;SDS011;71067;51.482;-0.580;2023-11-21T03:29:13;2.80;;;1.92;;
81656;SDS011;71067;51.482;-0.580;2023-11-21T03:31:39;3.08;;;2.00;;
81656;SDS011;71067;51.482;-0.580;2023-11-21T03:34:04;2.85;;;2.15;;
81656;SDS011;71067;51.482;-0.580;2023-11-21T03:36:29;7.10;;;2.57;;
81656;SDS011;71067;51.482;-0.580;2023-11-21T03:38:55;3.33;;;1.85;;
81656;SDS011;71067;51.482;-0.580;2023-11-21T03:41:21;3.65;;;2.05;;
81656;SDS011;71067;51.482;-0.580;2023-11-21T03:43:46;2.65;;;1.70;;
81656;SDS011;71067;51.482;-0.580;2023-11-21T03:46:11;3.08;;;1.60;;
81656;SDS011;71067;51.482;-0.580;2023-11-21T03:48:37;2.40;;;1.67;;
81656;SDS011;71067;51.482;-0.580;2023-11-21T03:51:03;2.35;;;1.58;;
81656;SDS011;71067;51.482;-0.580;2023-11-21T03:53:28;2.92;;;1.67;;
81656;SDS011;71067;51.482;-0.580;2023-11-21T03:55:53;3.95;;;2.00;;
81656;SDS011;71067;51.482;-0.580;2023-11-21T03:58:19;2.15;;;1.60;;
81656;SDS011;71067;51.482;-0.580;2023-11-21T04:00:45;2.95;;;1.48;;
81656;SDS011;71067;51.482;-0.580;2023-11-21T04:03:12;2.60;;;1.20;;
81656;SDS011;71067;51.482;-0.580;2023-11-21T04:05:38;1.58;;;1.17;;
81656;SDS011;71067;51.482;-0.580;2023-11-21T04:08:03;1.87;;;1.13;;
81656;SDS011;71067;51.482;-0.580;2023-11-21T04:10:29;2.45;;;0.90;;
81656;SDS011;71067;51.482;-0.580;2023-11-21T04:12:54;2.10;;;1.15;;
81656;SDS011;71067;51.482;-0.580;2023-11-21T04:15:19;1.87;;;1.10;;
81656;SDS011;71067;51.482;-0.580;2023-11-21T04:17:45;2.92;;;0.98;;
81656;SDS011;71067;51.482;-0.580;2023-11-21T04:20:10;2.33;;;0.87;;
81656;SDS011;71067;51.482;-0.580;2023-11-21T04:22:37;2.60;;;1.00;;
81656;SDS011;71067;51.482;-0.580;2023-11-21T04:25:06;1.75;;;1.00;;
81656;SDS011;71067;51.482;-0.580;2023-11-21T04:27:33;2.17;;;0.98;;
81656;SDS011;71067;51.482;-0.580;2023-11-21T04:29:59;2.25;;;0.85;;
81656;SDS011;71067;51.482;-0.580;2023-11-21T04:32:24;1.98;;;1.05;;
81656;SDS011;71067;51.482;-0.580;2023-11-21T04:34:50;2.17;;;1.20;;
81656;SDS011;71067;51.482;-0.580;2023-11-21T04:37:15;1.87;;;1.00;;
81656;SDS011;71067;51.482;-0.580;2023-11-21T04:39:40;2.00;;;1.17;;
81656;SDS011;71067;51.482;-0.580;2023-11-21T04:42:06;2.38;;;1.00;;
81656;SDS011;71067;51.482;-0.580;2023-11-21T04:44:31;2.00;;;1.08;;
81656;SDS011;71067;51.482;-0.580;2023-11-21T04:46:56;2.42;;;1.05;;
81656;SDS011;71067;51.482;-0.580;2023-11-21T04:49:21;2.00;;;1.10;;
81656;SDS011;71067;51.482;-0.580;2023-11-21T04:51:47;2.20;;;1.10;;
81656;SDS011;71067;51.482;-0.580;2023-11-21T04:54:12;3.00;;;1.27;;
81656;SDS011;71067;51.482;-0.580;2023-11-21T04:56:37;2.23;;;1.20;;
81656;SDS011;71067;51.482;-0.580;2023-11-21T04:59:03;1.95;;;1.20;;
81656;SDS011;71067;51.482;-0.580;2023-11-21T05:01:29;2.85;;;1.45;;
81656;SDS011;71067;51.482;-0.580;2023-11-21T05:03:55;4.28;;;1.55;;
81656;SDS011;71067;51.482;-0.580;2023-11-21T05:06:22;2.83;;;1.33;;
81656;SDS011;71067;51.482;-0.580;2023-11-21T05:08:48;3.13;;;1.30;;
81656;SDS011;71067;51.482;-0.580;2023-11-21T05:11:22;2.47;;;1.55;;
81656;SDS011;71067;51.482;-0.580;2023-11-21T05:13:49;2.72;;;1.42;;
81656;SDS011;71067;51.482;-0.580;2023-11-21T05:16:15;5.40;;;2.20;;
81656;SDS011;71067;51.482;-0.580;2023-11-21T05:18:40;3.08;;;1.40;;
81656;SDS011;71067;51.482;-0.580;2023-11-21T05:21:06;2.95;;;1.60;;
81656;SDS011;71067;51.482;-0.580;2023-11-21T05:23:32;2.47;;;1.50;;
81656;SDS011;71067;51.482;-0.580;2023-11-21T05:25:59;5.38;;;1.80;;
81656;SDS011;71067;51.482;-0.580;2023-11-21T05:28:24;2.40;;;1.52;;
81656;SDS011;71067;51.482;-0.580;2023-11-21T05:30:50;3.38;;;1.70;;
81656;SDS011;71067;51.482;-0.580;2023-11-21T05:33:15;2.65;;;1.52;;
81656;SDS011;71067;51.482;-0.580;2023-11-21T05:35:41;5.43;;;2.78;;
81656;SDS011;71067;51.482;-0.580;2023-11-21T05:38:06;3.13;;;1.50;;
81656;SDS011;71067;51.482;-0.580;2023-11-21T05:40:31;3.55;;;1.88;;
81656;SDS011;71067;51.482;-0.580;2023-11-21T05:42:57;4.32;;;1.90;;
81656;SDS011;71067;51.482;-0.580;2023-11-21T05:45:22;5.50;;;2.15;;
81656;SDS011;71067;51.482;-0.580;2023-11-21T05:47:47;3.03;;;1.77;;
81656;SDS011;71067;51.482;-0.580;2023-11-21T05:50:13;3.20;;;1.43;;
81656;SDS011;71067;51.482;-0.580;2023-11-21T05:52:40;2.25;;;1.40;;
81656;SDS011;71067;51.482;-0.580;2023-11-21T05:55:07;3.28;;;1.50;;
81656;SDS011;71067;51.482;-0.580;2023-11-21T05:57:33;4.22;;;1.65;;
81656;SDS011;71067;51.482;-0.580;2023-11-21T06:00:06;2.33;;;1.27;;
81656;SDS011;71067;51.482;-0.580;2023-11-21T06:02:37;2.75;;;1.52;;
81656;SDS011;71067;51.482;-0.580;2023-11-21T06:05:03;2.38;;;1.42;;
81656;SDS011;71067;51.482;-0.580;2023-11-21T06:07:29;3.30;;;1.50;;
81656;SDS011;71067;51.482;-0.580;2023-11-21T06:09:54;3.38;;;1.52;;
81656;SDS011;71067;51.482;-0.580;2023-11-21T06:12:20;3.93;;;1.40;;
81656;SDS011;71067;51.482;-0.580;2023-11-21T06:14:45;3.22;;;1.60;;
81656;SDS011;71067;51.482;-0.580;2023-11-21T06:17:11;4.22;;;1.38;;
81656;SDS011;71067;51.482;-0.580;2023-11-21T06:19:36;3.70;;;1.70;;
81656;SDS011;71067;51.482;-0.580;2023-11-21T06:22:01;3.20;;;1.38;;
81656;SDS011;71067;51.482;-0.580;2023-11-21T06:24:27;2.00;;;1.20;;
81656;SDS011;71067;51.482;-0.580;2023-11-21T06:26:53;2.40;;;1.48;;
81656;SDS011;71067;51.482;-0.580;2023-11-21T06:29:18;3.00;;;1.40;;
81656;SDS011;71067;51.482;-0.580;2023-11-21T06:31:44;4.75;;;1.20;;
81656;SDS011;71067;51.482;-0.580;2023-11-21T06:34:11;3.70;;;1.50;;
81656;SDS011;71067;51.482;-0.580;2023-11-21T06:36:37;2.78;;;1.23;;
81656;SDS011;71067;51.482;-0.580;2023-11-21T06:39:02;2.77;;;1.53;;
81656;SDS011;71067;51.482;-0.580;2023-11-21T06:41:31;2.03;;;1.20;;
81656;SDS011;71067;51.482;-0.580;2023-11-21T06:43:57;2.97;;;1.30;;
81656;SDS011;71067;51.482;-0.580;2023-11-21T06:46:24;3.67;;;1.30;;
81656;SDS011;71067;51.482;-0.580;2023-11-21T06:48:49;2.30;;;1.10;;
81656;SDS011;71067;51.482;-0.580;2023-11-21T06:51:15;4.53;;;1.15;;
81656;SDS011;71067;51.482;-0.580;2023-11-21T06:53:41;2.75;;;1.10;;
81656;SDS011;71067;51.482;-0.580;2023-11-21T06:56:19;2.72;;;1.15;;
81656;SDS011;71067;51.482;-0.580;2023-11-21T06:58:45;4.47;;;1.30;;
81656;SDS011;71067;51.482;-0.580;2023-11-21T07:01:11;3.78;;;1.02;;
81656;SDS011;71067;51.482;-0.580;2023-11-21T07:03:37;3.00;;;0.95;;
81656;SDS011;71067;51.482;-0.580;2023-11-21T07:06:03;1.40;;;0.77;;
81656;SDS011;71067;51.482;-0.580;2023-11-21T07:08:29;1.90;;;1.20;;
81656;SDS011;71067;51.482;-0.580;2023-11-21T07:10:54;2.80;;;0.97;;
81656;SDS011;71067;51.482;-0.580;2023-11-21T07:13:19;4.85;;;1.35;;
81656;SDS011;71067;51.482;-0.580;2023-11-21T07:15:44;2.50;;;1.07;;
81656;SDS011;71067;51.482;-0.580;2023-11-21T07:18:10;2.70;;;1.30;;
81656;SDS011;71067;51.482;-0.580;2023-11-21T07:20:36;4.32;;;1.10;;
81656;SDS011;71067;51.482;-0.580;2023-11-21T07:23:02;4.38;;;1.30;;
81656;SDS011;71067;51.482;-0.580;2023-11-21T07:25:28;2.53;;;1.40;;
81656;SDS011;71067;51.482;-0.580;2023-11-21T07:27:53;3.55;;;1.48;;
81656;SDS011;71067;51.482;-0.580;2023-11-21T07:30:20;2.63;;;0.98;;
81656;SDS011;71067;51.482;-0.580;2023-11-21T07:32:47;2.10;;;1.00;;
81656;SDS011;71067;51.482;-0.580;2023-11-21T07:35:13;2.67;;;0.98;;
81656;SDS011;71067;51.482;-0.580;2023-11-21T07:37:38;3.35;;;1.00;;
81656;SDS011;71067;51.482;-0.580;2023-11-21T07:40:04;1.60;;;0.90;;
81656;SDS011;71067;51.482;-0.580;2023-11-21T07:42:30;2.80;;;1.30;;
81656;SDS011;71067;51.482;-0.580;2023-11-21T07:44:55;3.70;;;0.98;;
81656;SDS011;71067;51.482;-0.580;2023-11-21T07:47:21;4.13;;;1.02;;
81656;SDS011;71067;51.482;-0.580;2023-11-21T07:49:47;2.13;;;0.90;;
81656;SDS011;71067;51.482;-0.580;2023-11-21T07:52:12;2.78;;;0.90;;
81656;SDS011;71067;51.482;-0.580;2023-11-21T07:54:39;2.35;;;1.00;;
81656;SDS011;71067;51.482;-0.580;2023-11-21T07:57:05;2.17;;;1.00;;
81656;SDS011;71067;51.482;-0.580;2023-11-21T07:59:30;2.67;;;1.23;;
81656;SDS011;71067;51.482;-0.580;2023-11-21T08:01:55;2.58;;;1.10;;
81656;SDS011;71067;51.482;-0.580;2023-11-21T08:04:21;3.05;;;1.17;;
81656;SDS011;71067;51.482;-0.580;2023-11-21T08:06:46;2.70;;;1.20;;
81656;SDS011;71067;51.482;-0.580;2023-11-21T08:09:11;4.25;;;1.63;;
81656;SDS011;71067;51.482;-0.580;2023-11-21T08:11:37;1.70;;;1.05;;
81656;SDS011;71067;51.482;-0.580;2023-11-21T08:14:04;3.03;;;1.27;;
81656;SDS011;71067;51.482;-0.580;2023-11-21T08:16:29;2.92;;;1.30;;
81656;SDS011;71067;51.482;-0.580;2023-11-21T08:18:55;2.42;;;1.20;;
81656;SDS011;71067;51.482;-0.580;2023-11-21T08:21:20;2.60;;;1.50;;
81656;SDS011;71067;51.482;-0.580;2023-11-21T08:23:46;2.20;;;1.60;;
81656;SDS011;71067;51.482;-0.580;2023-11-21T08:26:12;3.22;;;1.30;;
81656;SDS011;71067;51.482;-0.580;2023-11-21T08:28:38;3.25;;;1.38;;
81656;SDS011;71067;51.482;-0.580;2023-11-21T08:31:03;3.05;;;1.40;;
81656;SDS011;71067;51.482;-0.580;2023-11-21T08:33:29;2.35;;;1.20;;
81656;SDS011;71067;51.482;-0.580;2023-11-21T08:35:55;4.00;;;1.20;;
81656;SDS011;71067;51.482;-0.580;2023-11-21T08:38:20;3.13;;;1.48;;
81656;SDS011;71067;51.482;-0.580;2023-11-21T08:40:45;2.53;;;1.20;;
81656;SDS011;71067;51.482;-0.580;2023-11-21T08:43:11;1.70;;;1.00;;
81656;SDS011;71067;51.482;-0.580;2023-11-21T08:45:37;2.70;;;1.00;;
81656;SDS011;71067;51.482;-0.580;2023-11-21T08:48:02;4.00;;;1.00;;
81656;SDS011;71067;51.482;-0.580;2023-11-21T08:50:28;3.38;;;1.00;;
81656;SDS011;71067;51.482;-0.580;2023-11-21T08:52:53;9.50;;;1.60;;
81656;SDS011;71067;51.482;-0.580;2023-11-21T08:55:19;3.25;;;1.10;;
81656;SDS011;71067;51.482;-0.580;2023-11-21T08:57:45;2.45;;;1.00;;
81656;SDS011;71067;51.482;-0.580;2023-11-21T09:00:11;2.08;;;1.23;;
81656;SDS011;71067;51.482;-0.580;2023-11-21T09:02:38;2.90;;;1.55;;
81656;SDS011;71067;51.482;-0.580;2023-11-21T09:05:05;3.53;;;1.15;;
81656;SDS011;71067;51.482;-0.580;2023-11-21T09:07:31;2.78;;;1.20;;
81656;SDS011;71067;51.482;-0.580;2023-11-21T09:09:56;2.28;;;1.10;;
81656;SDS011;71067;51.482;-0.580;2023-11-21T09:12:21;3.50;;;1.23;;
81656;SDS011;71067;51.482;-0.580;2023-11-21T09:14:47;4.78;;;1.45;;
81656;SDS011;71067;51.482;-0.580;2023-11-21T09:17:12;2.70;;;1.20;;
81656;SDS011;71067;51.482;-0.580;2023-11-21T09:19:39;5.13;;;1.40;;
81656;SDS011;71067;51.482;-0.580;2023-11-21T09:22:05;2.25;;;1.10;;
81656;SDS011;71067;51.482;-0.580;2023-11-21T09:24:31;1.88;;;1.00;;
81656;SDS011;71067;51.482;-0.580;2023-11-21T09:26:57;2.90;;;1.52;;
81656;SDS011;71067;51.482;-0.580;2023-11-21T09:29:22;3.17;;;1.20;;
81656;SDS011;71067;51.482;-0.580;2023-11-21T09:31:48;2.78;;;1.20;;
81656;SDS011;71067;51.482;-0.580;2023-11-21T09:34:16;2.70;;;1.02;;
81656;SDS011;71067;51.482;-0.580;2023-11-21T09:36:41;2.20;;;1.20;;
81656;SDS011;71067;51.482;-0.580;2023-11-21T09:39:10;1.95;;;1.10;;
81656;SDS011;71067;51.482;-0.580;2023-11-21T09:41:51;2.33;;;1.20;;
81656;SDS011;71067;51.482;-0.580;2023-11-21T09:47:23;2.10;;;1.33;;
81656;SDS011;71067;51.482;-0.580;2023-11-21T09:49:49;3.63;;;1.00;;
81656;SDS011;71067;51.482;-0.580;2023-11-21T09:52:39;2.63;;;1.13;;
81656;SDS011;71067;51.482;-0.580;2023-11-21T09:55:09;4.57;;;1.10;;
81656;SDS011;71067;51.482;-0.580;2023-11-21T09:57:38;2.47;;;1.20;;
81656;SDS011;71067;51.482;-0.580;2023-11-21T10:00:04;3.05;;;0.90;;
81656;SDS011;71067;51.482;-0.580;2023-11-21T10:02:31;4.63;;;1.15;;
81656;SDS011;71067;51.482;-0.580;2023-11-21T10:04:59;3.08;;;0.95;;
81656;SDS011;71067;51.482;-0.580;2023-11-21T10:07:25;3.10;;;1.13;;
81656;SDS011;71067;51.482;-0.580;2023-11-21T10:09:51;1.80;;;0.85;;
81656;SDS011;71067;51.482;-0.580;2023-11-21T10:12:18;2.53;;;0.90;;
81656;SDS011;71067;51.482;-0.580;2023-11-21T10:14:47;2.88;;;1.00;;
81656;SDS011;71067;51.482;-0.580;2023-11-21T10:17:14;2.10;;;0.90;;
81656;SDS011;71067;51.482;-0.580;2023-11-21T10:19:43;3.15;;;1.00;;
81656;SDS011;71067;51.482;-0.580;2023-11-21T10:22:12;1.75;;;0.80;;
81656;SDS011;71067;51.482;-0.580;2023-11-21T10:24:37;1.90;;;0.90;;
81656;SDS011;71067;51.482;-0.580;2023-11-21T10:27:03;4.32;;;0.88;;
81656;SDS011;71067;51.482;-0.580;2023-11-21T10:29:29;1.80;;;1.00;;
81656;SDS011;71067;51.482;-0.580;2023-11-21T10:31:55;1.77;;;0.90;;
81656;SDS011;71067;51.482;-0.580;2023-11-21T10:34:23;1.52;;;0.68;;
81656;SDS011;71067;51.482;-0.580;2023-11-21T10:36:49;2.28;;;0.80;;
81656;SDS011;71067;51.482;-0.580;2023-11-21T10:39:18;3.97;;;1.00;;
81656;SDS011;71067;51.482;-0.580;2023-11-21T10:41:44;2.67;;;0.60;;
81656;SDS011;71067;51.482;-0.580;2023-11-21T10:44:11;3.20;;;0.80;;
81656;SDS011;71067;51.482;-0.580;2023-11-21T10:46:39;1.80;;;0.80;;
81656;SDS011;71067;51.482;-0.580;2023-11-21T10:49:05;2.47;;;0.80;;
81656;SDS011;71067;51.482;-0.580;2023-11-21T10:51:31;1.65;;;0.90;;
81656;SDS011;71067;51.482;-0.580;2023-11-21T10:53:57;3.10;;;0.70;;
81656;SDS011;71067;51.482;-0.580;2023-11-21T10:56:24;2.63;;;0.70;;
81656;SDS011;71067;51.482;-0.580;2023-11-21T10:58:51;3.65;;;0.90;;
81656;SDS011;71067;51.482;-0.580;2023-11-21T11:01:17;2.10;;;0.70;;
81656;SDS011;71067;51.482;-0.580;2023-11-21T11:03:44;3.17;;;0.80;;
81656;SDS011;71067;51.482;-0.580;2023-11-21T11:06:09;1.60;;;0.70;;
81656;SDS011;71067;51.482;-0.580;2023-11-21T11:08:38;1.42;;;0.60;;
81656;SDS011;71067;51.482;-0.580;2023-11-21T11:11:07;1.40;;;0.75;;
81656;SDS011;71067;51.482;-0.580;2023-11-21T11:13:35;1.50;;;0.70;;
81656;SDS011;71067;51.482;-0.580;2023-11-21T11:16:02;1.70;;;0.70;;
81656;SDS011;71067;51.482;-0.580;2023-11-21T11:18:32;1.55;;;0.88;;
81656;SDS011;71067;51.482;-0.580;2023-11-21T11:21:08;1.88;;;0.70;;
81656;SDS011;71067;51.482;-0.580;2023-11-21T11:29:10;2.75;;;0.93;;
81656;SDS011;71067;51.482;-0.580;2023-11-21T11:31:40;1.92;;;0.77;;
81656;SDS011;71067;51.482;-0.580;2023-11-21T11:37:20;2.58;;;0.98;;
81656;SDS011;71067;51.482;-0.580;2023-11-21T11:39:46;2.28;;;1.02;;
81656;SDS011;71067;51.482;-0.580;2023-11-21T11:42:15;2.22;;;1.00;;
81656;SDS011;71067;51.482;-0.580;2023-11-21T11:49:56;1.30;;;0.65;;
81656;SDS011;71067;51.482;-0.580;2023-11-21T11:52:41;2.10;;;0.80;;
81656;SDS011;71067;51.482;-0.580;2023-11-21T11:55:14;2.15;;;1.00;;
81656;SDS011;71067;51.482;-0.580;2023-11-21T11:57:44;1.58;;;1.00;;
81656;SDS011;71067;51.482;-0.580;2023-11-21T12:05:22;1.80;;;1.20;;
81656;SDS011;71067;51.482;-0.580;2023-11-21T12:07:52;2.05;;;0.90;;
81656;SDS011;71067;51.482;-0.580;2023-11-21T12:10:20;2.03;;;0.90;;
81656;SDS011;71067;51.482;-0.580;2023-11-21T12:12:48;2.50;;;1.10;;
81656;SDS011;71067;51.482;-0.580;2023-11-21T12:15:14;2.53;;;0.80;;
81656;SDS011;71067;51.482;-0.580;2023-11-21T12:17:43;2.35;;;0.95;;
81656;SDS011;71067;51.482;-0.580;2023-11-21T12:20:10;1.85;;;0.80;;
81656;SDS011;71067;51.482;-0.580;2023-11-21T12:22:49;2.15;;;1.05;;
81656;SDS011;71067;51.482;-0.580;2023-11-21T12:27:44;1.90;;;0.70;;
81656;SDS011;71067;51.482;-0.580;2023-11-21T12:30:11;1.30;;;0.70;;
81656;SDS011;71067;51.482;-0.580;2023-11-21T12:32:42;2.25;;;0.70;;
81656;SDS011;71067;51.482;-0.580;2023-11-21T12:35:09;2.08;;;0.80;;
81656;SDS011;71067;51.482;-0.580;2023-11-21T12:37:38;2.28;;;0.88;;
81656;SDS011;71067;51.482;-0.580;2023-11-21T12:40:08;1.60;;;0.82;;
81656;SDS011;71067;51.482;-0.580;2023-11-21T12:42:37;1.70;;;0.80;;
81656;SDS011;71067;51.482;-0.580;2023-11-21T12:47:52;1.63;;;0.73;;
81656;SDS011;71067;51.482;-0.580;2023-11-21T12:50:23;1.95;;;0.80;;
81656;SDS011;71067;51.482;-0.580;2023-11-21T12:52:53;1.67;;;0.93;;
81656;SDS011;71067;51.482;-0.580;2023-11-21T12:55:23;1.67;;;0.70;;
81656;SDS011;71067;51.482;-0.580;2023-11-21T12:57:49;1.75;;;0.60;;
81656;SDS011;71067;51.482;-0.580;2023-11-21T13:00:29;2.22;;;1.38;;
81656;SDS011;71067;51.482;-0.580;2023-11-21T13:05:28;2.10;;;1.20;;
81656;SDS011;71067;51.482;-0.580;2023-11-21T13:08:03;1.92;;;1.00;;
81656;SDS011;71067;51.482;-0.580;2023-11-21T13:10:32;2.40;;;0.93;;
81656;SDS011;71067;51.482;-0.580;2023-11-21T13:13:01;1.98;;;0.90;;
81656;SDS011;71067;51.482;-0.580;2023-11-21T13:15:30;2.00;;;0.70;;
81656;SDS011;71067;51.482;-0.580;2023-11-21T13:17:57;2.25;;;0.70;;
81656;SDS011;71067;51.482;-0.580;2023-11-21T13:20:26;3.47;;;0.90;;
81656;SDS011;71067;51.482;-0.580;2023-11-21T13:22:52;2.85;;;1.00;;
81656;SDS011;71067;51.482;-0.580;2023-11-21T13:25:22;3.05;;;0.80;;
81656;SDS011;71067;51.482;-0.580;2023-11-21T13:27:48;4.00;;;0.90;;
81656;SDS011;71067;51.482;-0.580;2023-11-21T13:30:15;2.15;;;0.70;;
81656;SDS011;71067;51.482;-0.580;2023-11-21T13:32:44;1.80;;;0.73;;
81656;SDS011;71067;51.482;-0.580;2023-11-21T13:35:16;2.22;;;0.80;;
81656;SDS011;71067;51.482;-0.580;2023-11-21T13:37:55;1.95;;;0.90;;
81656;SDS011;71067;51.482;-0.580;2023-11-21T13:40:25;3.13;;;0.70;;
81656;SDS011;71067;51.482;-0.580;2023-11-21T13:42:54;2.53;;;0.95;;
81656;SDS011;71067;51.482;-0.580;2023-11-21T13:45:24;3.80;;;0.95;;
81656;SDS011;71067;51.482;-0.580;2023-11-21T13:47:50;3.13;;;1.63;;
81656;SDS011;71067;51.482;-0.580;2023-11-21T13:50:25;1.60;;;1.00;;
81656;SDS011;71067;51.482;-0.580;2023-11-21T13:52:58;2.42;;;1.20;;
81656;SDS011;71067;51.482;-0.580;2023-11-21T13:55:29;3.17;;;1.20;;
81656;SDS011;71067;51.482;-0.580;2023-11-21T13:57:54;2.88;;;1.10;;
81656;SDS011;71067;51.482;-0.580;2023-11-21T14:00:19;3.05;;;1.10;;
81656;SDS011;71067;51.482;-0.580;2023-11-21T14:03:03;3.03;;;0.90;;
81656;SDS011;71067;51.482;-0.580;2023-11-21T14:07:59;4.53;;;1.35;;
81656;SDS011;71067;51.482;-0.580;2023-11-21T14:10:30;6.63;;;1.63;;
81656;SDS011;71067;51.482;-0.580;2023-11-21T14:13:08;5.50;;;1.30;;
81656;SDS011;71067;51.482;-0.580;2023-11-21T14:15:41;6.25;;;1.27;;
81656;SDS011;71067;51.482;-0.580;2023-11-21T14:18:08;7.15;;;1.33;;
81656;SDS011;71067;51.482;-0.580;2023-11-21T14:20:38;5.35;;;1.35;;
81656;SDS011;71067;51.482;-0.580;2023-11-21T14:23:04;4.85;;;1.45;;
81656;SDS011;71067;51.482;-0.580;2023-11-21T14:25:32;9.65;;;1.67;;
81656;SDS011;71067;51.482;-0.580;2023-11-21T14:27:58;5.25;;;1.50;;
81656;SDS011;71067;51.482;-0.580;2023-11-21T14:30:24;7.32;;;1.83;;
81656;SDS011;71067;51.482;-0.580;2023-11-21T14:32:50;6.80;;;1.70;;
81656;SDS011;71067;51.482;-0.580;2023-11-21T14:35:16;5.88;;;1.85;;
81656;SDS011;71067;51.482;-0.580;2023-11-21T14:37:42;8.38;;;1.90;;
81656;SDS011;71067;51.482;-0.580;2023-11-21T14:40:08;8.20;;;2.08;;
81656;SDS011;71067;51.482;-0.580;2023-11-21T14:42:33;7.18;;;1.80;;
81656;SDS011;71067;51.482;-0.580;2023-11-21T14:45:02;7.25;;;1.85;;
81656;SDS011;71067;51.482;-0.580;2023-11-21T14:47:31;7.07;;;2.15;;
81656;SDS011;71067;51.482;-0.580;2023-11-21T14:49:57;5.60;;;1.92;;
81656;SDS011;71067;51.482;-0.580;2023-11-21T14:52:25;6.97;;;2.30;;
81656;SDS011;71067;51.482;-0.580;2023-11-21T14:55:00;6.53;;;2.00;;
81656;SDS011;71067;51.482;-0.580;2023-11-21T14:57:56;5.65;;;2.13;;
81656;SDS011;71067;51.482;-0.580;2023-11-21T15:00:21;5.78;;;2.15;;
81656;SDS011;71067;51.482;-0.580;2023-11-21T15:03:00;6.50;;;1.80;;
81656;SDS011;71067;51.482;-0.580;2023-11-21T15:05:26;7.07;;;2.10;;